Atlantic - Newfoundland: Past 24 Hour Conditions

 

Charlottetown Airport

11:00 AM ADT 23 September 2014
This table is a summary of hourly weather conditions for the past 24 hours.
Date / Time
(ADT)
Wind(knots) Conditions Visibility(km) Pressure(kPa) Air tempC) Relative humidity(%) Dew pointC) Humidex
23 September 2014
11:00 W 13 gust 19 Mostly Cloudy 24 101.6 12 61 4 *
10:00 W 11 gust 18 Mostly Cloudy 24 101.5 11 70 6 *
9:00 WSW 13 Partly Cloudy 24 101.5 11 77 7 *
8:00 W 10 gust 16 Mainly Sunny 24 101.4 10 76 6 *
7:00 W 10 gust 16 Partly Cloudy 24 101.3 10 74 6 *
6:00 W 10 gust 19 Mostly Cloudy 24 101.2 11 68 5 *
5:00 W 8 gust 16 Cloudy 24 101.1 11 69 6 *
4:00 W 7 Mostly Cloudy 24 101.0 11 72 6 *
3:00 W 10 Partly Cloudy 24 100.9 11 71 6 *
2:00 W 13 gust 24 Cloudy 24 100.8 12 68 7 *
1:00 W 16 gust 26 Cloudy 24 100.7 13 66 7 *
0:00 WSW 11 gust 24 Partly Cloudy 24 100.6 13 67 7 *
22 September 2014
23:00 WSW 14 gust 20 Mostly Cloudy 24 100.5 15 66 9 *
22:00 WSW 13 gust 22 Mostly Cloudy 24 100.3 16 81 13 *
21:00 SW 15 gust 23 Mainly Clear 24 100.2 17 81 14 *
20:00 SW 18 gust 29 Mainly Clear 24 100.0 19 67 13 *
19:00 SW 17 gust 27 Mainly Sunny 24 99.9 20 58 12 *
18:00 SW 21 gust 27 Mainly Sunny 24 99.8 22 64 15 26
17:00 SW 13 gust 28 Mainly Sunny 24 99.8 23 72 17 28
16:00 SW 21 gust 33 Partly Cloudy 24 99.8 22 78 18 29
15:00 SW 20 gust 28 Mostly Cloudy 24 99.8 23 78 19 29
14:00 SSW 14 gust 23 Mostly Cloudy 24 99.8 23 81 19 30
13:00 SW 17 gust 25 Mostly Cloudy 24 99.7 23 80 19 30
12:00 SW 12 gust 19 Mostly Cloudy 24 99.7 22 86 19 29
11:00 WSW 10 gust 16 Mostly Cloudy 24 99.6 21 90 19 28
 
Map of Atlantic - Newfoundland marine weather areas Southwestern Grand Banks - 44138 Banquereau - 44139 Tail of the Bank - 44140 Nickerson Bank - 44251 Northeast Burgeo Bank - 44255 Blanc-Sablon Airport Cap Whittle Chevery Natashquan Airport Heath Point Miscou Island Grand Étang Ingonish Beach North Mountain St.Paul Island J.A. Douglas McCurdy Sydney Airport Charlottetown Airport East Point North Cape Argentia Bonavista Burgeo Cape Race Corner Brook Daniel's Harbour Englee Ferolle Point La Scie Port aux Basques Rocky Harbour Sagona Island St. Anthony Airport St. John's Int'l Airport St. Lawrence Stephenville Airport Twillingate Winterland Wreckhouse Cartwright Airport Mary's Harbour Grates Cove Pool's Island Marticot Island Long Pond Îles de la Madeleine Airport
Legend: buoyBuoy land stationLand Station